Terminal Aerodrome Forecast
Issued by NWS

Home | Current Version | Previous Version | Text Only | Print | Product List | Glossary On
Versions: 1 2 3 4 5 6 7 8 9 10 11 12 13 14 15 16 17
000
FTPA31 PHFO 240805 AAA
TAFHTO
TAF AMD
PHTO 240805Z 2408/2506 VRB06KT P6SM VCSH SCT020 OVC045
      TEMPO 2408/2411 3SM -SHRA BR SCT015 BKN025 OVC040
     FM241100 24005KT P6SM FEW020 SCT040
     FM241600 VRB06KT P6SM VCSH FEW020 BKN040
     FM242000 08008KT P6SM SCT020 SCT050=

USA.gov is the U.S. government's official web portal to all federal, state and local government web resources and services.